sensor_id;sensor_type;location;lat;lon;timestamp;temperature;humidity
20370;DHT22;10344;47.592;9.600;2024-03-23T00:56:22;10.80;99.90
20370;DHT22;10344;47.592;9.600;2024-03-23T00:58:47;10.80;99.90
20370;DHT22;10344;47.592;9.600;2024-03-23T01:01:16;10.80;99.90
20370;DHT22;10344;47.592;9.600;2024-03-23T01:03:44;10.80;99.90
20370;DHT22;10344;47.592;9.600;2024-03-23T01:06:09;10.80;99.90
20370;DHT22;10344;47.592;9.600;2024-03-23T01:08:35;10.70;99.90
20370;DHT22;10344;47.592;9.600;2024-03-23T01:11:01;10.70;99.90
20370;DHT22;10344;47.592;9.600;2024-03-23T01:13:29;10.60;99.90
20370;DHT22;10344;47.592;9.600;2024-03-23T01:15:56;10.60;99.90
20370;DHT22;10344;47.592;9.600;2024-03-23T01:18:24;10.40;99.90
20370;DHT22;10344;47.592;9.600;2024-03-23T01:20:51;10.20;99.90
20370;DHT22;10344;47.592;9.600;2024-03-23T01:23:17;10.20;99.90
20370;DHT22;10344;47.592;9.600;2024-03-23T01:25:43;10.20;99.90
20370;DHT22;10344;47.592;9.600;2024-03-23T01:28:08;10.20;99.90
20370;DHT22;10344;47.592;9.600;2024-03-23T01:30:35;10.20;99.90
20370;DHT22;10344;47.592;9.600;2024-03-23T01:33:01;10.20;99.90
20370;DHT22;10344;47.592;9.600;2024-03-23T01:35:29;10.00;99.90
20370;DHT22;10344;47.592;9.600;2024-03-23T01:37:57;9.90;99.90
20370;DHT22;10344;47.592;9.600;2024-03-23T01:40:25;9.90;99.90
20370;DHT22;10344;47.592;9.600;2024-03-23T01:43:03;9.80;99.90
20370;DHT22;10344;47.592;9.600;2024-03-23T01:45:29;9.80;99.90
20370;DHT22;10344;47.592;9.600;2024-03-23T01:47:55;9.80;99.90
20370;DHT22;10344;47.592;9.600;2024-03-23T01:50:21;9.80;99.90
20370;DHT22;10344;47.592;9.600;2024-03-23T01:52:47;10.00;99.90
20370;DHT22;10344;47.592;9.600;2024-03-23T01:55:13;10.10;99.90
20370;DHT22;10344;47.592;9.600;2024-03-23T01:57:39;10.00;99.90
20370;DHT22;10344;47.592;9.600;2024-03-23T02:00:05;10.10;99.90
20370;DHT22;10344;47.592;9.600;2024-03-23T02:02:34;10.20;99.90
20370;DHT22;10344;47.592;9.600;2024-03-23T02:05:00;10.20;99.90
20370;DHT22;10344;47.592;9.600;2024-03-23T02:07:25;10.30;99.90
20370;DHT22;10344;47.592;9.600;2024-03-23T02:09:53;10.30;99.90
20370;DHT22;10344;47.592;9.600;2024-03-23T02:12:20;10.20;99.90
20370;DHT22;10344;47.592;9.600;2024-03-23T02:14:46;10.20;99.90
20370;DHT22;10344;47.592;9.600;2024-03-23T02:17:12;10.10;99.90
20370;DHT22;10344;47.592;9.600;2024-03-23T02:19:38;10.00;99.90
20370;DHT22;10344;47.592;9.600;2024-03-23T02:22:06;10.10;99.90
20370;DHT22;10344;47.592;9.600;2024-03-23T02:24:32;10.20;99.90
20370;DHT22;10344;47.592;9.600;2024-03-23T02:26:59;10.20;99.90
20370;DHT22;10344;47.592;9.600;2024-03-23T02:29:30;10.20;99.90
20370;DHT22;10344;47.592;9.600;2024-03-23T02:31:56;10.20;99.90
20370;DHT22;10344;47.592;9.600;2024-03-23T02:34:22;10.10;99.90
20370;DHT22;10344;47.592;9.600;2024-03-23T02:36:47;10.10;99.90
20370;DHT22;10344;47.592;9.600;2024-03-23T02:39:13;10.10;99.90
20370;DHT22;10344;47.592;9.600;2024-03-23T02:41:41;10.10;99.90
20370;DHT22;10344;47.592;9.600;2024-03-23T02:44:06;10.00;99.90
20370;DHT22;10344;47.592;9.600;2024-03-23T02:46:33;10.00;99.90
20370;DHT22;10344;47.592;9.600;2024-03-23T02:48:58;10.00;99.90
20370;DHT22;10344;47.592;9.600;2024-03-23T02:51:24;10.00;99.90
20370;DHT22;10344;47.592;9.600;2024-03-23T02:53:50;9.90;99.90
20370;DHT22;10344;47.592;9.600;2024-03-23T02:56:18;9.90;99.90
20370;DHT22;10344;47.592;9.600;2024-03-23T02:58:43;9.80;99.90
20370;DHT22;10344;47.592;9.600;2024-03-23T03:01:09;9.80;99.90
20370;DHT22;10344;47.592;9.600;2024-03-23T03:03:34;9.70;99.90
20370;DHT22;10344;47.592;9.600;2024-03-23T03:06:00;9.70;99.90
20370;DHT22;10344;47.592;9.600;2024-03-23T03:08:26;9.70;99.90
20370;DHT22;10344;47.592;9.600;2024-03-23T03:10:53;9.80;99.90
20370;DHT22;10344;47.592;9.600;2024-03-23T03:13:19;9.90;99.90
20370;DHT22;10344;47.592;9.600;2024-03-23T03:15:45;9.90;99.90
20370;DHT22;10344;47.592;9.600;2024-03-23T03:18:10;10.00;99.90
20370;DHT22;10344;47.592;9.600;2024-03-23T03:20:42;10.10;99.90
20370;DHT22;10344;47.592;9.600;2024-03-23T03:23:12;10.10;99.90
20370;DHT22;10344;47.592;9.600;2024-03-23T03:25:39;10.20;99.90
20370;DHT22;10344;47.592;9.600;2024-03-23T03:28:05;10.30;99.90
20370;DHT22;10344;47.592;9.600;2024-03-23T03:30:33;10.20;99.90
20370;DHT22;10344;47.592;9.600;2024-03-23T03:33:01;10.30;99.90
20370;DHT22;10344;47.592;9.600;2024-03-23T03:35:27;10.30;99.90
20370;DHT22;10344;47.592;9.600;2024-03-23T03:37:52;10.30;99.90
20370;DHT22;10344;47.592;9.600;2024-03-23T03:40:18;10.20;99.90
20370;DHT22;10344;47.592;9.600;2024-03-23T03:42:46;10.20;99.90
20370;DHT22;10344;47.592;9.600;2024-03-23T03:45:11;10.20;99.90
20370;DHT22;10344;47.592;9.600;2024-03-23T03:47:37;10.30;99.90
20370;DHT22;10344;47.592;9.600;2024-03-23T03:50:05;10.30;99.90
20370;DHT22;10344;47.592;9.600;2024-03-23T03:52:31;10.20;99.90
20370;DHT22;10344;47.592;9.600;2024-03-23T03:55:01;10.30;99.90
20370;DHT22;10344;47.592;9.600;2024-03-23T03:57:28;10.40;99.90
20370;DHT22;10344;47.592;9.600;2024-03-23T03:59:55;10.40;99.90
20370;DHT22;10344;47.592;9.600;2024-03-23T04:02:23;10.30;99.90
20370;DHT22;10344;47.592;9.600;2024-03-23T04:04:49;10.30;99.90
20370;DHT22;10344;47.592;9.600;2024-03-23T04:07:15;10.30;99.90
20370;DHT22;10344;47.592;9.600;2024-03-23T04:09:43;10.30;99.90
20370;DHT22;10344;47.592;9.600;2024-03-23T04:12:09;10.40;99.90
20370;DHT22;10344;47.592;9.600;2024-03-23T04:14:35;10.40;99.90
20370;DHT22;10344;47.592;9.600;2024-03-23T04:17:00;10.30;99.90
20370;DHT22;10344;47.592;9.600;2024-03-23T04:19:26;10.40;99.90
20370;DHT22;10344;47.592;9.600;2024-03-23T04:21:51;10.60;99.90
20370;DHT22;10344;47.592;9.600;2024-03-23T04:24:17;10.40;99.90
20370;DHT22;10344;47.592;9.600;2024-03-23T04:26:44;10.40;99.90
20370;DHT22;10344;47.592;9.600;2024-03-23T04:29:11;10.30;99.90
20370;DHT22;10344;47.592;9.600;2024-03-23T04:31:38;10.20;99.90
20370;DHT22;10344;47.592;9.600;2024-03-23T04:34:03;10.10;99.90
20370;DHT22;10344;47.592;9.600;2024-03-23T04:36:29;10.10;99.90
20370;DHT22;10344;47.592;9.600;2024-03-23T04:38:57;10.10;99.90
20370;DHT22;10344;47.592;9.600;2024-03-23T04:41:26;10.10;99.90
20370;DHT22;10344;47.592;9.600;2024-03-23T04:43:51;10.10;99.90
20370;DHT22;10344;47.592;9.600;2024-03-23T04:46:17;10.10;99.90
20370;DHT22;10344;47.592;9.600;2024-03-23T04:48:45;10.10;99.90
20370;DHT22;10344;47.592;9.600;2024-03-23T04:51:11;10.10;99.90
20370;DHT22;10344;47.592;9.600;2024-03-23T04:53:46;10.10;99.90
20370;DHT22;10344;47.592;9.600;2024-03-23T04:56:13;10.10;99.90
20370;DHT22;10344;47.592;9.600;2024-03-23T04:58:43;10.10;99.90
20370;DHT22;10344;47.592;9.600;2024-03-23T05:01:09;10.20;99.90
20370;DHT22;10344;47.592;9.600;2024-03-23T05:03:34;10.30;99.90
20370;DHT22;10344;47.592;9.600;2024-03-23T05:06:03;10.40;99.90
20370;DHT22;10344;47.592;9.600;2024-03-23T05:08:28;10.30;99.90
20370;DHT22;10344;47.592;9.600;2024-03-23T05:10:54;10.20;99.90
20370;DHT22;10344;47.592;9.600;2024-03-23T05:13:19;10.20;99.90
20370;DHT22;10344;47.592;9.600;2024-03-23T05:15:53;10.10;99.90
20370;DHT22;10344;47.592;9.600;2024-03-23T05:18:19;10.00;99.90
20370;DHT22;10344;47.592;9.600;2024-03-23T05:20:45;10.00;99.90
20370;DHT22;10344;47.592;9.600;2024-03-23T05:23:13;10.00;99.90
20370;DHT22;10344;47.592;9.600;2024-03-23T05:25:39;10.00;99.90
20370;DHT22;10344;47.592;9.600;2024-03-23T05:28:04;10.10;99.90
20370;DHT22;10344;47.592;9.600;2024-03-23T05:30:30;10.10;99.90
20370;DHT22;10344;47.592;9.600;2024-03-23T05:33:03;10.30;99.90
20370;DHT22;10344;47.592;9.600;2024-03-23T05:35:29;10.40;99.90
20370;DHT22;10344;47.592;9.600;2024-03-23T05:37:54;10.50;99.90
20370;DHT22;10344;47.592;9.600;2024-03-23T05:40:20;10.50;99.90
20370;DHT22;10344;47.592;9.600;2024-03-23T05:42:45;10.50;99.90
20370;DHT22;10344;47.592;9.600;2024-03-23T05:45:11;10.50;99.90
20370;DHT22;10344;47.592;9.600;2024-03-23T05:47:39;10.50;99.90
20370;DHT22;10344;47.592;9.600;2024-03-23T05:50:05;10.50;99.90
20370;DHT22;10344;47.592;9.600;2024-03-23T05:52:30;10.50;99.90
20370;DHT22;10344;47.592;9.600;2024-03-23T05:54:56;10.50;99.90
20370;DHT22;10344;47.592;9.600;2024-03-23T05:57:23;10.60;99.90
20370;DHT22;10344;47.592;9.600;2024-03-23T05:59:51;10.70;99.90
20370;DHT22;10344;47.592;9.600;2024-03-23T06:02:17;10.70;99.90
20370;DHT22;10344;47.592;9.600;2024-03-23T06:04:42;10.60;99.90
20370;DHT22;10344;47.592;9.600;2024-03-23T06:07:10;10.60;99.90
20370;DHT22;10344;47.592;9.600;2024-03-23T06:09:42;10.60;99.90
20370;DHT22;10344;47.592;9.600;2024-03-23T06:12:08;10.50;99.90
20370;DHT22;10344;47.592;9.600;2024-03-23T06:14:35;10.50;99.90
20370;DHT22;10344;47.592;9.600;2024-03-23T06:17:01;10.60;99.90
20370;DHT22;10344;47.592;9.600;2024-03-23T06:19:27;10.70;99.90
20370;DHT22;10344;47.592;9.600;2024-03-23T06:21:53;10.90;99.90
20370;DHT22;10344;47.592;9.600;2024-03-23T06:24:24;11.10;99.90
20370;DHT22;10344;47.592;9.600;2024-03-23T06:26:50;11.40;99.90
20370;DHT22;10344;47.592;9.600;2024-03-23T06:29:15;11.50;99.90
20370;DHT22;10344;47.592;9.600;2024-03-23T06:31:41;11.60;99.90
20370;DHT22;10344;47.592;9.600;2024-03-23T06:34:09;11.70;99.90
20370;DHT22;10344;47.592;9.600;2024-03-23T06:36:34;11.70;99.90
20370;DHT22;10344;47.592;9.600;2024-03-23T06:39:01;11.70;99.90
20370;DHT22;10344;47.592;9.600;2024-03-23T06:41:27;11.60;99.90
20370;DHT22;10344;47.592;9.600;2024-03-23T06:43:53;11.40;99.90
20370;DHT22;10344;47.592;9.600;2024-03-23T06:46:18;11.40;99.90
20370;DHT22;10344;47.592;9.600;2024-03-23T06:48:45;11.20;99.90
20370;DHT22;10344;47.592;9.600;2024-03-23T06:51:11;11.10;99.90
20370;DHT22;10344;47.592;9.600;2024-03-23T06:53:36;11.10;99.90
20370;DHT22;10344;47.592;9.600;2024-03-23T06:56:02;11.10;99.90
20370;DHT22;10344;47.592;9.600;2024-03-23T06:58:28;11.10;99.90
20370;DHT22;10344;47.592;9.600;2024-03-23T07:00:53;11.00;99.90
20370;DHT22;10344;47.592;9.600;2024-03-23T07:03:21;10.90;99.90
20370;DHT22;10344;47.592;9.600;2024-03-23T07:05:47;10.90;99.90
20370;DHT22;10344;47.592;9.600;2024-03-23T07:08:12;10.80;99.90
20370;DHT22;10344;47.592;9.600;2024-03-23T07:10:41;10.80;99.90
20370;DHT22;10344;47.592;9.600;2024-03-23T07:13:07;10.70;99.90
20370;DHT22;10344;47.592;9.600;2024-03-23T07:15:33;10.80;99.90
20370;DHT22;10344;47.592;9.600;2024-03-23T07:17:59;10.70;99.90
20370;DHT22;10344;47.592;9.600;2024-03-23T07:20:25;10.70;99.90
20370;DHT22;10344;47.592;9.600;2024-03-23T07:22:55;10.60;99.90
20370;DHT22;10344;47.592;9.600;2024-03-23T07:25:21;10.60;99.90
20370;DHT22;10344;47.592;9.600;2024-03-23T07:27:51;10.60;99.90
20370;DHT22;10344;47.592;9.600;2024-03-23T07:30:18;10.50;99.90
20370;DHT22;10344;47.592;9.600;2024-03-23T07:32:46;10.60;99.90
20370;DHT22;10344;47.592;9.600;2024-03-23T07:35:15;10.50;99.90
20370;DHT22;10344;47.592;9.600;2024-03-23T07:37:41;10.50;99.90
20370;DHT22;10344;47.592;9.600;2024-03-23T07:40:07;10.50;99.90
20370;DHT22;10344;47.592;9.600;2024-03-23T07:42:35;10.40;99.90
20370;DHT22;10344;47.592;9.600;2024-03-23T07:45:01;10.40;99.90
20370;DHT22;10344;47.592;9.600;2024-03-23T07:47:26;10.40;99.90
20370;DHT22;10344;47.592;9.600;2024-03-23T07:49:52;10.30;99.90
20370;DHT22;10344;47.592;9.600;2024-03-23T07:52:17;10.30;99.90
20370;DHT22;10344;47.592;9.600;2024-03-23T07:54:43;10.30;99.90
20370;DHT22;10344;47.592;9.600;2024-03-23T07:57:09;10.30;99.90
20370;DHT22;10344;47.592;9.600;2024-03-23T07:59:34;10.30;99.90
20370;DHT22;10344;47.592;9.600;2024-03-23T08:02:00;10.30;99.90
20370;DHT22;10344;47.592;9.600;2024-03-23T08:04:27;10.30;99.90
20370;DHT22;10344;47.592;9.600;2024-03-23T08:06:53;10.30;99.90
20370;DHT22;10344;47.592;9.600;2024-03-23T08:09:21;10.40;99.90
20370;DHT22;10344;47.592;9.600;2024-03-23T08:11:48;10.30;99.90
20370;DHT22;10344;47.592;9.600;2024-03-23T08:14:13;10.40;99.90
20370;DHT22;10344;47.592;9.600;2024-03-23T08:16:39;10.40;99.90
20370;DHT22;10344;47.592;9.600;2024-03-23T08:19:04;10.40;99.90
20370;DHT22;10344;47.592;9.600;2024-03-23T08:21:33;10.40;99.90
20370;DHT22;10344;47.592;9.600;2024-03-23T08:23:58;10.40;99.90
20370;DHT22;10344;47.592;9.600;2024-03-23T08:26:24;10.50;99.90
20370;DHT22;10344;47.592;9.600;2024-03-23T08:28:52;10.50;99.90
20370;DHT22;10344;47.592;9.600;2024-03-23T08:31:17;10.40;99.90
20370;DHT22;10344;47.592;9.600;2024-03-23T08:33:43;10.40;99.90
20370;DHT22;10344;47.592;9.600;2024-03-23T08:36:10;10.40;99.90
20370;DHT22;10344;47.592;9.600;2024-03-23T08:38:39;10.40;99.90
20370;DHT22;10344;47.592;9.600;2024-03-23T08:41:06;10.40;99.90
20370;DHT22;10344;47.592;9.600;2024-03-23T08:43:35;10.40;99.90
20370;DHT22;10344;47.592;9.600;2024-03-23T08:46:04;10.40;99.90
20370;DHT22;10344;47.592;9.600;2024-03-23T08:48:30;10.40;99.90
20370;DHT22;10344;47.592;9.600;2024-03-23T08:51:03;10.40;99.90
20370;DHT22;10344;47.592;9.600;2024-03-23T08:53:29;10.40;99.90
20370;DHT22;10344;47.592;9.600;2024-03-23T08:55:56;10.40;99.90
20370;DHT22;10344;47.592;9.600;2024-03-23T08:58:24;10.40;99.90
20370;DHT22;10344;47.592;9.600;2024-03-23T09:00:50;10.30;99.90
20370;DHT22;10344;47.592;9.600;2024-03-23T09:03:22;10.20;99.90
20370;DHT22;10344;47.592;9.600;2024-03-23T09:05:51;9.90;99.90
20370;DHT22;10344;47.592;9.600;2024-03-23T09:08:17;9.70;99.90
20370;DHT22;10344;47.592;9.600;2024-03-23T09:10:43;9.50;99.90
20370;DHT22;10344;47.592;9.600;2024-03-23T09:13:09;9.40;99.90
20370;DHT22;10344;47.592;9.600;2024-03-23T09:15:45;9.20;99.90
20370;DHT22;10344;47.592;9.600;2024-03-23T09:18:11;9.10;99.90
20370;DHT22;10344;47.592;9.600;2024-03-23T09:20:36;9.10;99.90
20370;DHT22;10344;47.592;9.600;2024-03-23T09:23:04;9.10;99.90
20370;DHT22;10344;47.592;9.600;2024-03-23T09:25:36;9.00;99.90
20370;DHT22;10344;47.592;9.600;2024-03-23T09:28:02;9.10;99.90
20370;DHT22;10344;47.592;9.600;2024-03-23T09:30:27;9.10;99.90
20370;DHT22;10344;47.592;9.600;2024-03-23T09:32:53;9.10;99.90
20370;DHT22;10344;47.592;9.600;2024-03-23T09:35:18;9.10;99.90
20370;DHT22;10344;47.592;9.600;2024-03-23T09:37:45;9.10;99.90
20370;DHT22;10344;47.592;9.600;2024-03-23T09:40:11;9.10;99.90
20370;DHT22;10344;47.592;9.600;2024-03-23T09:42:37;9.10;99.90
20370;DHT22;10344;47.592;9.600;2024-03-23T09:45:05;9.10;99.90
20370;DHT22;10344;47.592;9.600;2024-03-23T09:47:33;9.10;99.90
20370;DHT22;10344;47.592;9.600;2024-03-23T09:50:00;9.10;99.90
20370;DHT22;10344;47.592;9.600;2024-03-23T09:52:26;9.00;99.90
20370;DHT22;10344;47.592;9.600;2024-03-23T09:54:54;9.00;99.90
20370;DHT22;10344;47.592;9.600;2024-03-23T09:57:21;9.10;99.90
20370;DHT22;10344;47.592;9.600;2024-03-23T09:59:47;9.10;99.90
20370;DHT22;10344;47.592;9.600;2024-03-23T10:02:13;9.20;99.90
20370;DHT22;10344;47.592;9.600;2024-03-23T10:04:42;9.30;99.90
20370;DHT22;10344;47.592;9.600;2024-03-23T10:07:18;9.30;99.90
20370;DHT22;10344;47.592;9.600;2024-03-23T10:09:45;9.30;99.90
20370;DHT22;10344;47.592;9.600;2024-03-23T10:12:14;9.30;99.90
20370;DHT22;10344;47.592;9.600;2024-03-23T10:14:41;9.30;99.90
20370;DHT22;10344;47.592;9.600;2024-03-23T10:17:18;9.40;99.90
20370;DHT22;10344;47.592;9.600;2024-03-23T10:19:48;9.40;99.90
20370;DHT22;10344;47.592;9.600;2024-03-23T10:22:22;9.50;99.90
20370;DHT22;10344;47.592;9.600;2024-03-23T10:24:50;9.60;99.90
20370;DHT22;10344;47.592;9.600;2024-03-23T10:27:20;9.70;99.90
20370;DHT22;10344;47.592;9.600;2024-03-23T10:29:46;9.80;99.90
20370;DHT22;10344;47.592;9.600;2024-03-23T10:32:13;9.80;99.90
20370;DHT22;10344;47.592;9.600;2024-03-23T10:34:42;9.80;99.90
20370;DHT22;10344;47.592;9.600;2024-03-23T10:37:08;9.90;99.90
20370;DHT22;10344;47.592;9.600;2024-03-23T10:39:35;10.00;99.90
20370;DHT22;10344;47.592;9.600;2024-03-23T10:42:09;10.20;99.90
20370;DHT22;10344;47.592;9.600;2024-03-23T10:44:39;10.20;99.90
20370;DHT22;10344;47.592;9.600;2024-03-23T10:47:05;10.20;99.90
20370;DHT22;10344;47.592;9.600;2024-03-23T10:49:34;10.20;99.90
20370;DHT22;10344;47.592;9.600;2024-03-23T10:52:05;10.20;99.90
20370;DHT22;10344;47.592;9.600;2024-03-23T10:54:32;10.10;99.90
20370;DHT22;10344;47.592;9.600;2024-03-23T10:59:26;10.20;99.90
20370;DHT22;10344;47.592;9.600;2024-03-23T11:01:59;10.30;99.90
20370;DHT22;10344;47.592;9.600;2024-03-23T11:06:57;10.70;99.90
20370;DHT22;10344;47.592;9.600;2024-03-23T11:09:38;10.90;99.90
20370;DHT22;10344;47.592;9.600;2024-03-23T11:12:28;11.10;99.90
20370;DHT22;10344;47.592;9.600;2024-03-23T11:15:11;11.30;99.90
20370;DHT22;10344;47.592;9.600;2024-03-23T11:17:37;11.70;99.90
20370;DHT22;10344;47.592;9.600;2024-03-23T11:20:05;12.50;99.90
20370;DHT22;10344;47.592;9.600;2024-03-23T11:22:46;13.30;99.90
20370;DHT22;10344;47.592;9.600;2024-03-23T11:25:22;14.00;99.90
20370;DHT22;10344;47.592;9.600;2024-03-23T11:28:08;14.70;99.90
20370;DHT22;10344;47.592;9.600;2024-03-23T11:30:34;14.80;99.90
20370;DHT22;10344;47.592;9.600;2024-03-23T11:33:02;14.80;99.90
20370;DHT22;10344;47.592;9.600;2024-03-23T11:35:37;14.80;99.90
20370;DHT22;10344;47.592;9.600;2024-03-23T11:38:14;14.50;99.90
20370;DHT22;10344;47.592;9.600;2024-03-23T11:40:47;14.40;99.90
20370;DHT22;10344;47.592;9.600;2024-03-23T11:43:19;14.50;99.90
20370;DHT22;10344;47.592;9.600;2024-03-23T11:45:48;14.70;99.90
20370;DHT22;10344;47.592;9.600;2024-03-23T11:48:19;14.60;99.90
20370;DHT22;10344;47.592;9.600;2024-03-23T11:50:49;14.30;99.90
20370;DHT22;10344;47.592;9.600;2024-03-23T11:53:21;13.90;99.90
20370;DHT22;10344;47.592;9.600;2024-03-23T11:55:51;13.80;99.90
20370;DHT22;10344;47.592;9.600;2024-03-23T11:58:18;13.60;99.90
20370;DHT22;10344;47.592;9.600;2024-03-23T12:00:54;13.90;99.90
20370;DHT22;10344;47.592;9.600;2024-03-23T12:03:20;14.20;99.90
20370;DHT22;10344;47.592;9.600;2024-03-23T12:05:51;14.90;99.90
20370;DHT22;10344;47.592;9.600;2024-03-23T12:08:36;15.10;99.90
20370;DHT22;10344;47.592;9.600;2024-03-23T12:13:36;15.30;99.90
20370;DHT22;10344;47.592;9.600;2024-03-23T12:16:13;15.30;99.90
20370;DHT22;10344;47.592;9.600;2024-03-23T12:18:43;15.30;99.90
20370;DHT22;10344;47.592;9.600;2024-03-23T12:21:11;15.40;99.90
20370;DHT22;10344;47.592;9.600;2024-03-23T12:23:39;15.30;99.90
20370;DHT22;10344;47.592;9.600;2024-03-23T12:26:05;15.00;99.90
20370;DHT22;10344;47.592;9.600;2024-03-23T12:28:32;14.50;99.90
20370;DHT22;10344;47.592;9.600;2024-03-23T12:30:57;14.10;99.90
20370;DHT22;10344;47.592;9.600;2024-03-23T12:33:23;13.80;99.90
20370;DHT22;10344;47.592;9.600;2024-03-23T12:35:50;13.60;99.90
20370;DHT22;10344;47.592;9.600;2024-03-23T12:38:16;13.60;99.90
20370;DHT22;10344;47.592;9.600;2024-03-23T12:40:45;13.40;99.90
20370;DHT22;10344;47.592;9.600;2024-03-23T12:43:12;13.20;99.90
20370;DHT22;10344;47.592;9.600;2024-03-23T12:45:38;13.20;99.90
20370;DHT22;10344;47.592;9.600;2024-03-23T12:48:04;13.20;99.90
20370;DHT22;10344;47.592;9.600;2024-03-23T12:50:29;13.30;99.90
20370;DHT22;10344;47.592;9.600;2024-03-23T12:52:55;13.60;99.90
20370;DHT22;10344;47.592;9.600;2024-03-23T12:55:21;13.70;99.90
20370;DHT22;10344;47.592;9.600;2024-03-23T12:57:47;13.90;99.90
20370;DHT22;10344;47.592;9.600;2024-03-23T13:00:14;14.10;99.90
20370;DHT22;10344;47.592;9.600;2024-03-23T13:02:47;14.60;99.90
20370;DHT22;10344;47.592;9.600;2024-03-23T13:05:15;14.90;99.90
20370;DHT22;10344;47.592;9.600;2024-03-23T13:07:40;15.10;99.90
20370;DHT22;10344;47.592;9.600;2024-03-23T13:10:06;15.40;99.90
20370;DHT22;10344;47.592;9.600;2024-03-23T13:12:33;15.30;99.90
20370;DHT22;10344;47.592;9.600;2024-03-23T13:14:59;15.30;99.90
20370;DHT22;10344;47.592;9.600;2024-03-23T13:17:26;15.00;99.90
20370;DHT22;10344;47.592;9.600;2024-03-23T13:19:53;14.50;99.90
20370;DHT22;10344;47.592;9.600;2024-03-23T13:22:18;14.00;99.90
20370;DHT22;10344;47.592;9.600;2024-03-23T13:24:44;13.50;99.90
20370;DHT22;10344;47.592;9.600;2024-03-23T13:27:10;13.10;99.90
20370;DHT22;10344;47.592;9.600;2024-03-23T13:29:36;13.10;99.90
20370;DHT22;10344;47.592;9.600;2024-03-23T13:32:03;13.50;99.90
20370;DHT22;10344;47.592;9.600;2024-03-23T13:34:29;13.90;99.90
20370;DHT22;10344;47.592;9.600;2024-03-23T13:36:58;14.00;99.90
20370;DHT22;10344;47.592;9.600;2024-03-23T13:39:24;13.90;99.90
20370;DHT22;10344;47.592;9.600;2024-03-23T13:41:50;14.10;99.90
20370;DHT22;10344;47.592;9.600;2024-03-23T13:44:19;14.10;99.90
20370;DHT22;10344;47.592;9.600;2024-03-23T13:46:44;14.10;99.90
20370;DHT22;10344;47.592;9.600;2024-03-23T13:49:29;14.00;99.90
20370;DHT22;10344;47.592;9.600;2024-03-23T13:51:58;13.90;99.90
20370;DHT22;10344;47.592;9.600;2024-03-23T13:54:27;14.20;99.90
20370;DHT22;10344;47.592;9.600;2024-03-23T13:56:56;14.30;99.90
20370;DHT22;10344;47.592;9.600;2024-03-23T13:59:22;14.20;99.90
20370;DHT22;10344;47.592;9.600;2024-03-23T14:01:51;14.40;99.90
20370;DHT22;10344;47.592;9.600;2024-03-23T14:04:17;14.40;99.90
20370;DHT22;10344;47.592;9.600;2024-03-23T14:06:43;14.10;99.90
20370;DHT22;10344;47.592;9.600;2024-03-23T14:09:11;13.80;99.90
20370;DHT22;10344;47.592;9.600;2024-03-23T14:11:37;13.60;99.90
20370;DHT22;10344;47.592;9.600;2024-03-23T14:14:03;13.70;99.90
20370;DHT22;10344;47.592;9.600;2024-03-23T14:16:32;13.80;99.90
20370;DHT22;10344;47.592;9.600;2024-03-23T14:19:00;14.10;99.90
20370;DHT22;10344;47.592;9.600;2024-03-23T14:21:26;14.00;99.90
20370;DHT22;10344;47.592;9.600;2024-03-23T14:23:52;13.90;99.90
20370;DHT22;10344;47.592;9.600;2024-03-23T14:26:19;13.90;99.90
20370;DHT22;10344;47.592;9.600;2024-03-23T14:28:47;13.90;99.90
20370;DHT22;10344;47.592;9.600;2024-03-23T14:31:12;13.70;99.90
20370;DHT22;10344;47.592;9.600;2024-03-23T14:33:39;13.50;99.90
20370;DHT22;10344;47.592;9.600;2024-03-23T14:36:15;13.30;99.90
20370;DHT22;10344;47.592;9.600;2024-03-23T14:38:42;13.30;99.90
20370;DHT22;10344;47.592;9.600;2024-03-23T14:41:10;13.40;99.90
20370;DHT22;10344;47.592;9.600;2024-03-23T14:43:35;13.50;99.90
20370;DHT22;10344;47.592;9.600;2024-03-23T14:46:14;13.30;99.90
20370;DHT22;10344;47.592;9.600;2024-03-23T14:48:44;13.20;99.90
20370;DHT22;10344;47.592;9.600;2024-03-23T14:51:11;12.90;99.90
20370;DHT22;10344;47.592;9.600;2024-03-23T14:53:39;12.70;99.90
20370;DHT22;10344;47.592;9.600;2024-03-23T14:56:08;12.90;99.90
20370;DHT22;10344;47.592;9.600;2024-03-23T14:58:37;13.20;99.90
20370;DHT22;10344;47.592;9.600;2024-03-23T15:01:04;13.30;99.90
20370;DHT22;10344;47.592;9.600;2024-03-23T15:03:30;13.50;99.90
20370;DHT22;10344;47.592;9.600;2024-03-23T15:05:56;13.80;99.90
20370;DHT22;10344;47.592;9.600;2024-03-23T15:08:22;14.00;99.90
20370;DHT22;10344;47.592;9.600;2024-03-23T15:10:48;14.20;99.90
20370;DHT22;10344;47.592;9.600;2024-03-23T15:13:14;14.40;99.90
20370;DHT22;10344;47.592;9.600;2024-03-23T15:15:41;14.70;99.90
20370;DHT22;10344;47.592;9.600;2024-03-23T15:18:12;15.00;99.90
20370;DHT22;10344;47.592;9.600;2024-03-23T15:20:38;15.10;99.90
20370;DHT22;10344;47.592;9.600;2024-03-23T15:23:04;15.50;99.90
20370;DHT22;10344;47.592;9.600;2024-03-23T15:25:32;15.80;99.90
20370;DHT22;10344;47.592;9.600;2024-03-23T15:27:58;16.00;99.90
20370;DHT22;10344;47.592;9.600;2024-03-23T15:30:27;16.50;99.90
20370;DHT22;10344;47.592;9.600;2024-03-23T15:32:53;16.60;99.90
20370;DHT22;10344;47.592;9.600;2024-03-23T15:35:19;16.90;99.90
20370;DHT22;10344;47.592;9.600;2024-03-23T15:37:48;17.20;99.90
20370;DHT22;10344;47.592;9.600;2024-03-23T15:40:13;17.50;99.90
20370;DHT22;10344;47.592;9.600;2024-03-23T15:42:39;17.40;99.90
20370;DHT22;10344;47.592;9.600;2024-03-23T15:45:08;17.40;99.90
20370;DHT22;10344;47.592;9.600;2024-03-23T15:47:35;16.30;99.90
20370;DHT22;10344;47.592;9.600;2024-03-23T15:50:01;15.20;99.90
20370;DHT22;10344;47.592;9.600;2024-03-23T15:52:28;15.20;99.90
20370;DHT22;10344;47.592;9.600;2024-03-23T15:54:54;16.20;99.90
20370;DHT22;10344;47.592;9.600;2024-03-23T15:57:21;17.00;99.90
20370;DHT22;10344;47.592;9.600;2024-03-23T15:59:49;17.30;99.90
20370;DHT22;10344;47.592;9.600;2024-03-23T16:02:15;16.90;99.90
20370;DHT22;10344;47.592;9.600;2024-03-23T16:04:43;16.40;99.90
20370;DHT22;10344;47.592;9.600;2024-03-23T16:07:11;15.50;99.90
20370;DHT22;10344;47.592;9.600;2024-03-23T16:09:39;14.30;99.90
20370;DHT22;10344;47.592;9.600;2024-03-23T16:12:07;13.50;99.90
20370;DHT22;10344;47.592;9.600;2024-03-23T16:14:33;12.80;99.90
20370;DHT22;10344;47.592;9.600;2024-03-23T16:16:58;12.40;99.90
20370;DHT22;10344;47.592;9.600;2024-03-23T16:19:26;12.20;99.90
20370;DHT22;10344;47.592;9.600;2024-03-23T16:21:52;12.00;99.90
20370;DHT22;10344;47.592;9.600;2024-03-23T16:24:21;11.90;99.90
20370;DHT22;10344;47.592;9.600;2024-03-23T16:26:46;11.70;99.90
20370;DHT22;10344;47.592;9.600;2024-03-23T16:29:12;11.60;99.90
20370;DHT22;10344;47.592;9.600;2024-03-23T16:31:40;11.40;99.90
20370;DHT22;10344;47.592;9.600;2024-03-23T16:34:08;11.30;99.90
20370;DHT22;10344;47.592;9.600;2024-03-23T16:36:33;11.30;99.90